createdAt,value
2023-02-21T00:00:05.762Z,39.72
2023-02-21T00:03:11.838Z,34.65
2023-02-21T00:05:57.915Z,35.17
2023-02-21T00:08:44.016Z,33.63
2023-02-21T00:11:30.141Z,38.97
2023-02-21T00:14:16.107Z,38.60
2023-02-21T00:17:02.315Z,36.05
2023-02-21T00:19:48.313Z,37.95
2023-02-21T00:22:34.306Z,38.58
2023-02-21T00:25:20.591Z,37.58
2023-02-21T00:28:06.635Z,36.55
2023-02-21T00:30:52.744Z,36.53
2023-02-21T00:33:38.743Z,37.80
2023-02-21T00:36:25.161Z,36.05
2023-02-21T00:39:11.155Z,37.28
2023-02-21T00:41:57.067Z,38.92
2023-02-21T00:44:43.044Z,38.28
2023-02-21T00:47:29.235Z,33.53
2023-02-21T00:50:15.223Z,36.33
2023-02-21T00:53:01.138Z,34.85
2023-02-21T00:55:46.906Z,35.78
2023-02-21T00:58:32.643Z,36.17
2023-02-21T01:01:18.550Z,37.50
2023-02-21T01:04:05.099Z,37.55
2023-02-21T01:06:50.896Z,35.97
2023-02-21T01:09:36.795Z,37.85
2023-02-21T01:12:22.685Z,37.10
2023-02-21T01:15:08.662Z,35.80
2023-02-21T01:17:54.299Z,36.85
2023-02-21T01:20:40.348Z,39.50
2023-02-21T01:23:26.387Z,38.00
2023-02-21T01:26:12.147Z,34.25
2023-02-21T01:28:58.067Z,37.70
2023-02-21T01:31:44.109Z,36.55
2023-02-21T01:34:33.694Z,36.67
2023-02-21T01:37:21.074Z,37.42
2023-02-21T01:40:08.713Z,37.72
2023-02-21T01:42:54.660Z,36.50
2023-02-21T01:45:41.496Z,35.95
2023-02-21T01:48:33.615Z,38.67
2023-02-21T01:51:21.941Z,37.80
2023-02-21T01:54:08.276Z,35.80
2023-02-21T01:56:55.788Z,37.45
2023-02-21T01:59:43.539Z,35.72
2023-02-21T02:03:08.890Z,36.67
2023-02-21T02:08:45.937Z,35.85
2023-02-21T02:12:09.769Z,36.30
2023-02-21T02:14:46.228Z,36.75
2023-02-21T02:17:37.099Z,38.03
2023-02-21T02:20:42.187Z,36.28
2023-02-21T02:23:16.450Z,40.15
2023-02-21T02:26:00.927Z,39.28
2023-02-21T02:28:46.559Z,40.50
2023-02-21T02:31:42.641Z,39.88
2023-02-21T02:34:35.474Z,38.85
2023-02-21T02:37:40.128Z,37.67
2023-02-21T02:42:52.534Z,35.85
2023-02-21T02:45:36.646Z,37.10
2023-02-21T02:50:56.314Z,36.38
2023-02-21T02:53:30.110Z,36.92
2023-02-21T02:56:02.370Z,37.20
2023-02-21T02:58:52.864Z,36.78
2023-02-21T03:01:42.260Z,38.03
2023-02-21T03:04:41.011Z,39.60
2023-02-21T03:07:18.156Z,39.05
2023-02-21T03:10:26.308Z,40.22
2023-02-21T03:13:05.319Z,34.83
2023-02-21T03:15:41.135Z,37.03
2023-02-21T03:18:17.734Z,38.63
2023-02-21T03:20:50.653Z,37.13
2023-02-21T03:23:21.291Z,39.73
2023-02-21T03:25:51.467Z,38.13
2023-02-21T03:28:20.945Z,39.20
2023-02-21T03:30:53.306Z,39.22
2023-02-21T03:33:20.924Z,38.25
2023-02-21T03:35:49.004Z,37.63
2023-02-21T03:38:16.506Z,40.17
2023-02-21T03:40:44.006Z,39.72
2023-02-21T03:43:11.637Z,38.65
2023-02-21T03:45:47.877Z,34.97
2023-02-21T03:48:30.974Z,36.20
2023-02-21T03:51:05.143Z,35.60
2023-02-21T03:53:36.872Z,38.88
2023-02-21T03:56:06.190Z,38.75
2023-02-21T03:59:03.322Z,39.47
2023-02-21T04:01:30.849Z,40.28
2023-02-21T04:03:58.404Z,35.65
2023-02-21T04:06:27.286Z,34.40
2023-02-21T04:08:55.596Z,35.55
2023-02-21T04:11:25.221Z,35.53
2023-02-21T04:13:54.210Z,33.88
2023-02-21T04:16:21.755Z,36.20
2023-02-21T04:18:53.169Z,33.70
2023-02-21T04:21:21.153Z,36.20
2023-02-21T04:23:50.568Z,36.05
2023-02-21T04:26:18.152Z,36.95
2023-02-21T04:28:51.488Z,37.03
2023-02-21T04:31:19.774Z,38.53
2023-02-21T04:33:47.337Z,36.75
2023-02-21T04:36:21.488Z,37.08
2023-02-21T04:38:50.579Z,38.90
2023-02-21T04:41:18.113Z,39.78
2023-02-21T04:43:45.819Z,39.78
2023-02-21T04:46:16.512Z,40.20
2023-02-21T04:48:49.451Z,38.92
2023-02-21T04:51:20.237Z,38.63
2023-02-21T04:53:49.370Z,38.45
2023-02-21T04:56:21.051Z,39.03
2023-02-21T04:58:48.909Z,40.17
2023-02-21T05:01:18.410Z,37.92
2023-02-21T05:03:46.563Z,39.08
2023-02-21T05:06:18.927Z,38.22
2023-02-21T05:08:46.409Z,39.67
2023-02-21T05:11:14.713Z,38.50
2023-02-21T05:13:42.843Z,37.75
2023-02-21T05:16:10.906Z,36.30
2023-02-21T05:18:39.044Z,33.63
2023-02-21T05:21:07.188Z,37.08
2023-02-21T05:23:35.708Z,37.03
2023-02-21T05:26:09.794Z,35.33
2023-02-21T05:28:38.578Z,36.63
2023-02-21T05:31:06.929Z,34.90
2023-02-21T05:33:34.459Z,34.67
2023-02-21T05:36:02.119Z,36.72
2023-02-21T05:38:29.956Z,37.28
2023-02-21T05:40:57.367Z,34.83
2023-02-21T05:43:24.788Z,38.78
2023-02-21T05:45:52.163Z,37.58
2023-02-21T05:48:19.609Z,38.70
2023-02-21T05:50:46.958Z,38.03
2023-02-21T05:53:14.341Z,40.35
2023-02-21T05:55:41.745Z,39.03
2023-02-21T05:58:09.182Z,38.08
2023-02-21T06:00:36.709Z,39.63
2023-02-21T06:03:05.091Z,36.85
2023-02-21T06:05:32.590Z,39.85
2023-02-21T06:08:00.149Z,38.20
2023-02-21T06:10:27.542Z,39.58
2023-02-21T06:12:54.911Z,40.75
2023-02-21T06:15:22.275Z,36.30
2023-02-21T06:17:49.641Z,37.08
2023-02-21T06:20:17.814Z,37.17
2023-02-21T06:22:45.359Z,37.38
2023-02-21T06:25:12.810Z,33.80
2023-02-21T06:27:40.253Z,36.95
2023-02-21T06:30:08.119Z,36.58
2023-02-21T06:32:35.690Z,35.72
2023-02-21T06:35:04.641Z,33.92
2023-02-21T06:37:32.014Z,37.58
2023-02-21T06:39:59.423Z,37.13
2023-02-21T06:42:27.918Z,39.38
2023-02-21T06:44:55.352Z,37.00
2023-02-21T06:47:22.765Z,37.90
2023-02-21T06:49:50.134Z,36.80
2023-02-21T06:52:17.554Z,37.65
2023-02-21T06:54:46.097Z,37.97
2023-02-21T06:57:13.455Z,38.22
2023-02-21T06:59:41.355Z,36.92
2023-02-21T07:02:18.392Z,36.28
2023-02-21T07:04:47.396Z,39.00
2023-02-21T07:07:15.184Z,36.88
2023-02-21T07:09:42.746Z,37.78
2023-02-21T07:12:10.203Z,35.80
2023-02-21T07:14:37.585Z,36.53
2023-02-21T07:17:05.022Z,34.85
2023-02-21T07:19:32.379Z,35.80
2023-02-21T07:21:59.802Z,35.95
2023-02-21T07:24:27.242Z,37.97
2023-02-21T07:26:55.185Z,37.53
2023-02-21T07:29:22.697Z,36.58
2023-02-21T07:31:50.164Z,34.85
2023-02-21T07:34:17.651Z,34.50
2023-02-21T07:36:45.136Z,35.67
2023-02-21T07:39:12.888Z,34.38
2023-02-21T07:41:40.263Z,39.85
2023-02-21T07:44:10.338Z,37.30
2023-02-21T07:46:37.811Z,37.42
2023-02-21T07:49:05.322Z,36.85
2023-02-21T07:51:32.712Z,36.70
2023-02-21T07:54:00.124Z,38.47
2023-02-21T07:56:27.604Z,36.83
2023-02-21T07:58:54.954Z,39.40
2023-02-21T08:01:25.291Z,38.25
2023-02-21T08:03:52.788Z,37.97
2023-02-21T08:06:20.218Z,37.63
2023-02-21T08:08:47.622Z,36.83
2023-02-21T08:11:15.240Z,34.70
2023-02-21T08:13:42.709Z,36.45
2023-02-21T08:16:10.141Z,39.63
2023-02-21T08:18:37.616Z,36.55
2023-02-21T08:21:09.782Z,38.00
2023-02-21T08:23:37.216Z,42.45
2023-02-21T08:26:05.437Z,40.72
2023-02-21T08:28:34.787Z,42.60
2023-02-21T08:31:02.293Z,40.25
2023-02-21T08:37:14.690Z,40.00
2023-02-21T08:39:46.119Z,40.35
2023-02-21T08:42:14.345Z,42.72
2023-02-21T08:44:45.327Z,45.88
2023-02-21T08:47:14.593Z,41.22
2023-02-21T08:50:28.290Z,42.63
2023-02-21T08:56:48.314Z,44.97
2023-02-21T08:59:21.599Z,48.47
2023-02-21T09:01:49.589Z,45.88
2023-02-21T09:04:17.270Z,44.63
2023-02-21T09:06:44.629Z,43.80
2023-02-21T09:09:12.004Z,45.30
2023-02-21T09:11:53.980Z,43.28
2023-02-21T09:14:21.896Z,45.85
2023-02-21T09:16:49.401Z,46.08
2023-02-21T09:19:36.122Z,45.03
2023-02-21T09:25:40.201Z,44.25
2023-02-21T09:28:39.513Z,46.97
2023-02-21T09:31:38.708Z,44.15
2023-02-21T09:34:17.852Z,43.80
2023-02-21T09:36:49.564Z,45.80
2023-02-21T09:39:20.613Z,46.47
2023-02-21T09:41:52.225Z,44.35
2023-02-21T09:44:28.779Z,46.17
2023-02-21T09:47:04.429Z,46.75
2023-02-21T09:49:37.420Z,43.58
2023-02-21T09:52:07.645Z,44.53
2023-02-21T09:54:43.715Z,44.58
2023-02-21T09:57:15.655Z,46.80
2023-02-21T09:59:43.131Z,46.97
2023-02-21T10:02:21.379Z,44.60
2023-02-21T10:05:10.335Z,46.67
2023-02-21T10:07:49.993Z,46.88
2023-02-21T10:10:25.266Z,45.83
2023-02-21T10:13:38.724Z,46.15
2023-02-21T10:16:28.800Z,46.47
2023-02-21T10:19:19.913Z,45.17
2023-02-21T10:21:55.005Z,44.50
2023-02-21T10:24:40.719Z,44.97
2023-02-21T10:27:17.997Z,46.08
2023-02-21T10:29:49.883Z,43.95
2023-02-21T10:32:18.634Z,46.25
2023-02-21T10:34:48.925Z,44.17
2023-02-21T10:37:50.271Z,47.38
2023-02-21T10:40:33.597Z,47.70
2023-02-21T10:43:24.710Z,45.75
2023-02-21T10:46:09.150Z,45.40
2023-02-21T10:48:45.042Z,44.88
2023-02-21T10:51:19.020Z,47.92
2023-02-21T10:53:48.766Z,46.60
2023-02-21T10:56:22.159Z,46.83
2023-02-21T10:58:53.938Z,44.13
2023-02-21T11:01:22.142Z,46.28
2023-02-21T11:03:53.449Z,44.42
2023-02-21T11:06:38.264Z,47.47
2023-02-21T11:09:24.964Z,47.03
2023-02-21T11:12:03.441Z,43.63
2023-02-21T11:14:32.747Z,44.67
2023-02-21T11:17:19.266Z,47.85
2023-02-21T11:19:49.725Z,44.25
2023-02-21T11:22:52.542Z,44.75
2023-02-21T11:25:48.478Z,46.45
2023-02-21T11:28:20.707Z,46.67
2023-02-21T11:31:09.212Z,45.72
2023-02-21T11:33:41.513Z,43.42
2023-02-21T11:36:39.123Z,45.08
2023-02-21T11:39:19.181Z,43.35
2023-02-21T11:41:54.607Z,43.92
2023-02-21T11:44:35.289Z,43.80
2023-02-21T11:47:46.579Z,43.85
2023-02-21T11:50:34.721Z,41.95
2023-02-21T11:53:29.086Z,46.05
2023-02-21T11:58:38.181Z,42.33
2023-02-21T12:01:15.987Z,42.70
2023-02-21T12:04:10.727Z,43.35
2023-02-21T12:06:43.952Z,43.70
2023-02-21T12:09:19.535Z,43.30
2023-02-21T12:12:02.479Z,43.28
2023-02-21T12:14:49.508Z,41.08
2023-02-21T12:17:32.461Z,37.95
2023-02-21T12:20:26.206Z,39.23
2023-02-21T12:23:22.344Z,38.55
2023-02-21T12:26:11.448Z,41.25
2023-02-21T12:29:17.259Z,37.92
2023-02-21T12:32:06.979Z,35.90
2023-02-21T12:35:03.599Z,36.55
2023-02-21T12:37:54.715Z,35.22
2023-02-21T12:40:54.815Z,36.60
2023-02-21T12:44:00.984Z,37.78
2023-02-21T12:46:40.304Z,34.40
2023-02-21T12:49:17.399Z,37.80
2023-02-21T12:51:50.838Z,37.25
2023-02-21T12:54:45.059Z,36.35
2023-02-21T13:00:17.936Z,31.48
2023-02-21T13:03:31.859Z,33.95
2023-02-21T13:06:15.708Z,33.42
2023-02-21T13:09:05.491Z,32.55
2023-02-21T13:12:01.635Z,34.67
2023-02-21T13:14:37.614Z,32.28
2023-02-21T13:17:05.264Z,34.30
2023-02-21T13:19:42.622Z,30.00
2023-02-21T13:22:48.495Z,31.00
2023-02-21T13:25:43.809Z,31.25
2023-02-21T13:28:27.975Z,33.47
2023-02-21T13:31:01.225Z,31.58
2023-02-21T13:33:49.100Z,31.88
2023-02-21T13:36:43.494Z,34.25
2023-02-21T13:39:17.504Z,29.30
2023-02-21T13:41:56.571Z,30.13
2023-02-21T13:44:30.591Z,31.30
2023-02-21T13:47:10.594Z,30.23
2023-02-21T13:49:58.247Z,27.50
2023-02-21T13:52:27.740Z,29.45
2023-02-21T13:55:16.205Z,26.73
2023-02-21T13:57:49.098Z,24.50
2023-02-21T14:00:23.578Z,27.20
2023-02-21T14:02:59.449Z,25.92
2023-02-21T14:05:50.392Z,28.05
2023-02-21T14:08:27.775Z,25.90
2023-02-21T14:11:08.143Z,24.48
2023-02-21T14:18:11.147Z,26.52
2023-02-21T14:20:38.696Z,25.40
2023-02-21T14:23:06.543Z,26.42
2023-02-21T14:25:35.502Z,25.05
2023-02-21T14:28:22.770Z,24.60
2023-02-21T14:31:02.175Z,27.70
2023-02-21T14:33:30.806Z,25.52
2023-02-21T14:36:07.582Z,27.35
2023-02-21T14:38:41.879Z,25.35
2023-02-21T14:41:44.867Z,26.73
2023-02-21T14:44:24.554Z,22.88
2023-02-21T14:46:54.587Z,24.67
2023-02-21T14:50:00.663Z,24.23
2023-02-21T14:52:52.371Z,24.70
2023-02-21T14:55:19.693Z,26.95
2023-02-21T14:58:14.118Z,28.20
2023-02-21T15:01:15.961Z,24.17
2023-02-21T15:04:12.734Z,21.98
2023-02-21T15:06:44.552Z,26.23
2023-02-21T15:09:17.981Z,25.10
2023-02-21T15:14:23.579Z,17.27
2023-02-21T15:16:58.621Z,20.45
2023-02-21T15:19:30.102Z,22.65
2023-02-21T15:22:24.439Z,23.23
2023-02-21T15:25:10.893Z,22.88
2023-02-21T15:27:50.997Z,21.10
2023-02-21T15:30:31.195Z,19.67
2023-02-21T15:33:18.998Z,16.35
2023-02-21T15:35:51.547Z,17.83
2023-02-21T15:38:43.752Z,17.03
2023-02-21T15:41:22.987Z,17.52
2023-02-21T15:43:53.534Z,20.88
2023-02-21T15:46:28.346Z,18.08
2023-02-21T15:48:59.802Z,19.25
2023-02-21T15:51:27.546Z,18.45
2023-02-21T15:54:16.936Z,16.75
2023-02-21T15:56:45.717Z,17.65
2023-02-21T15:59:15.778Z,19.17
2023-02-21T16:01:43.336Z,17.60
2023-02-21T16:04:25.869Z,18.30
2023-02-21T16:06:57.931Z,17.73
2023-02-21T16:16:26.551Z,18.75
2023-02-21T16:22:21.651Z,18.20
2023-02-21T16:24:49.484Z,19.77
2023-02-21T16:27:18.407Z,20.73
2023-02-21T16:29:45.855Z,19.33
2023-02-21T16:32:21.134Z,19.63
2023-02-21T16:34:51.954Z,18.98
2023-02-21T16:37:19.354Z,19.48
2023-02-21T16:44:06.228Z,19.45
2023-02-21T16:46:33.654Z,18.98
2023-02-21T16:49:01.109Z,20.70
2023-02-21T16:51:33.774Z,19.23
2023-02-21T16:54:02.537Z,21.00
2023-02-21T16:56:30.092Z,22.30
2023-02-21T16:58:57.801Z,21.80
2023-02-21T17:01:30.465Z,21.85
2023-02-21T17:03:58.296Z,23.25
2023-02-21T17:06:27.202Z,23.85
2023-02-21T17:08:54.591Z,24.73
2023-02-21T17:15:23.053Z,21.58
2023-02-21T17:18:05.302Z,24.08
2023-02-21T17:20:32.772Z,22.98
2023-02-21T17:23:01.080Z,22.38
2023-02-21T17:25:29.266Z,21.70
2023-02-21T17:27:56.686Z,21.63
2023-02-21T17:30:25.206Z,21.95
2023-02-21T17:32:53.012Z,21.23
2023-02-21T17:35:22.558Z,21.60
2023-02-21T17:37:50.886Z,22.60
2023-02-21T17:40:20.452Z,23.45
2023-02-21T17:42:48.081Z,26.05
2023-02-21T17:45:19.428Z,26.63
2023-02-21T17:47:48.403Z,23.63
2023-02-21T18:00:40.195Z,25.33
2023-02-21T18:03:09.395Z,27.10
2023-02-21T18:05:37.567Z,24.75
2023-02-21T18:08:05.424Z,26.55
2023-02-21T18:10:32.813Z,28.23
2023-02-21T18:13:00.263Z,27.70
2023-02-21T18:15:28.921Z,27.95
2023-02-21T18:17:58.547Z,27.80
2023-02-21T18:20:25.994Z,30.48
2023-02-21T18:22:53.388Z,27.10
2023-02-21T18:25:22.699Z,28.75
2023-02-21T18:27:50.996Z,27.35
2023-02-21T18:30:19.204Z,29.00
2023-02-21T18:32:46.784Z,29.17
2023-02-21T18:35:18.017Z,30.73
2023-02-21T18:37:47.326Z,34.28
2023-02-21T18:40:16.546Z,30.02
2023-02-21T18:42:44.379Z,30.60
2023-02-21T18:45:12.320Z,31.45
2023-02-21T18:47:39.839Z,30.83
2023-02-21T18:50:07.985Z,35.95
2023-02-21T18:52:35.408Z,31.08
2023-02-21T18:55:04.074Z,33.13
2023-02-21T18:57:31.795Z,30.40
2023-02-21T18:59:59.816Z,32.45
2023-02-21T19:02:27.362Z,31.45
2023-02-21T19:04:54.729Z,32.38
2023-02-21T19:07:22.237Z,31.20
2023-02-21T19:09:50.404Z,31.48
2023-02-21T19:12:18.248Z,32.30
2023-02-21T19:14:45.744Z,32.67
2023-02-21T19:17:13.181Z,31.65
2023-02-21T19:19:40.599Z,34.67
2023-02-21T19:22:08.057Z,33.50
2023-02-21T19:24:35.455Z,31.73
2023-02-21T19:27:04.045Z,31.65
2023-02-21T19:29:31.409Z,32.13
2023-02-21T19:31:59.146Z,37.38
2023-02-21T19:34:26.594Z,36.92
2023-02-21T19:36:54.035Z,35.28
2023-02-21T19:39:21.372Z,36.88
2023-02-21T19:41:48.916Z,33.30
2023-02-21T19:44:16.349Z,38.10
2023-02-21T19:46:43.882Z,34.85
2023-02-21T19:49:20.492Z,33.83
2023-02-21T19:51:49.788Z,32.47
2023-02-21T19:54:20.402Z,36.30
2023-02-21T19:56:47.863Z,35.78
2023-02-21T19:59:15.286Z,35.95
2023-02-21T20:01:42.827Z,34.88
2023-02-21T20:04:10.294Z,37.08
2023-02-21T20:06:37.983Z,34.10
2023-02-21T20:09:07.603Z,37.90
2023-02-21T20:11:35.940Z,39.95
2023-02-21T20:14:04.041Z,39.60
2023-02-21T20:16:33.640Z,39.63
2023-02-21T20:19:01.321Z,38.88
2023-02-21T20:21:30.790Z,38.85
2023-02-21T20:23:58.220Z,41.67
2023-02-21T20:26:26.695Z,38.92
2023-02-21T20:28:55.358Z,41.58
2023-02-21T20:31:28.260Z,40.75
2023-02-21T20:33:56.660Z,35.92
2023-02-21T20:36:31.810Z,40.28
2023-02-21T20:38:59.561Z,37.53
2023-02-21T20:41:31.646Z,39.75
2023-02-21T20:43:59.697Z,40.70
2023-02-21T20:46:27.437Z,37.50
2023-02-21T20:48:58.555Z,40.05
2023-02-21T20:51:30.948Z,40.75
2023-02-21T20:54:00.448Z,41.22
2023-02-21T20:56:36.148Z,44.35
2023-02-21T20:59:05.021Z,43.15
2023-02-21T21:01:32.514Z,42.35
2023-02-21T21:03:59.958Z,38.00
2023-02-21T21:06:27.334Z,41.50
2023-02-21T21:08:54.714Z,41.33
2023-02-21T21:11:22.782Z,41.63
2023-02-21T21:13:50.227Z,44.40
2023-02-21T21:16:20.240Z,45.20
2023-02-21T21:18:47.718Z,41.75
2023-02-21T21:21:15.385Z,41.78
2023-02-21T21:23:43.110Z,42.20
2023-02-21T21:26:12.122Z,42.75
2023-02-21T21:28:40.803Z,44.22
2023-02-21T21:31:09.031Z,44.00
2023-02-21T21:33:36.494Z,44.85
2023-02-21T21:36:04.113Z,43.00
2023-02-21T21:38:31.799Z,42.58
2023-02-21T21:40:59.245Z,43.40
2023-02-21T21:43:28.446Z,44.47
2023-02-21T21:45:56.040Z,43.55
2023-02-21T21:48:24.895Z,45.33
2023-02-21T21:50:52.291Z,43.53
2023-02-21T21:53:20.172Z,40.47
2023-02-21T21:55:48.116Z,42.38
2023-02-21T21:58:15.571Z,45.65
2023-02-21T22:00:43.090Z,43.42
2023-02-21T22:03:14.465Z,46.65
2023-02-21T22:05:45.521Z,44.45
2023-02-21T22:08:17.329Z,44.03
2023-02-21T22:10:45.724Z,42.88
2023-02-21T22:13:20.697Z,41.75
2023-02-21T22:15:48.773Z,44.13
2023-02-21T22:18:19.402Z,45.38
2023-02-21T22:20:50.494Z,45.03
2023-02-21T22:23:24.408Z,43.97
2023-02-21T22:25:52.348Z,45.50
2023-02-21T22:28:19.758Z,43.75
2023-02-21T22:30:47.283Z,43.38
2023-02-21T22:33:18.723Z,46.53
2023-02-21T22:35:47.356Z,46.13
2023-02-21T22:38:17.397Z,44.70
2023-02-21T22:40:46.301Z,43.90
2023-02-21T22:43:14.389Z,46.08
2023-02-21T22:45:49.799Z,45.75
2023-02-21T22:48:20.442Z,45.05
2023-02-21T22:50:48.404Z,44.83
2023-02-21T22:53:19.024Z,41.20
2023-02-21T22:55:51.837Z,44.38
2023-02-21T22:58:20.607Z,42.20
2023-02-21T23:00:49.490Z,42.22
2023-02-21T23:03:17.943Z,41.30
2023-02-21T23:05:50.652Z,45.65
2023-02-21T23:08:20.560Z,44.50
2023-02-21T23:10:48.697Z,44.72
2023-02-21T23:13:19.025Z,46.33
2023-02-21T23:15:47.435Z,44.30
2023-02-21T23:18:23.320Z,44.60
2023-02-21T23:20:56.041Z,47.80
2023-02-21T23:23:27.314Z,47.15
2023-02-21T23:25:58.944Z,46.67
2023-02-21T23:28:29.147Z,49.25
2023-02-21T23:30:58.188Z,48.58
2023-02-21T23:33:29.240Z,47.85
2023-02-21T23:35:57.701Z,49.70
2023-02-21T23:38:28.353Z,51.42
2023-02-21T23:40:58.859Z,50.80
2023-02-21T23:43:29.598Z,48.03
2023-02-21T23:45:59.125Z,50.97
2023-02-21T23:48:27.052Z,48.42
2023-02-21T23:50:57.900Z,54.42
2023-02-21T23:53:28.820Z,49.15
2023-02-21T23:55:57.807Z,49.65
2023-02-21T23:58:27.786Z,50.58
